Kezdőlap
METAR-TAF:

METAR-TAF

Repülőterek :

Zihuatanejo, Mexikó

földrajzi szélesség: 17-36N, földrajzi hosszúság: 101-28W, magasság: 6 m

Jelenlegi meteorológiai megfigyelések

A jelentés 1 órával és 11 perccel ezelõtt készült, 19:41 UTC
Délnyugati szél 10 kt
Hőmérséklet 33°C
Páratartalom 63%
Légköri nyomás 1012 hPa
Látótávolság: 9.7 km
Derült ég

METAR: MMZH 291941Z 23010KT 6SM SKC 33/25 A2989 RMK HZ

Idő: 15:52 (20:52 UTC)

Előrejelzés

A jelentés 4 órával és 0 perccel ezelõtt készült, 16:52 UTC
Az előrejelzés 29-én 18 óra UTC és 30-én 18 óra UTC között érvényes
Délnyugati szél 10 kt
Látótávolság: 10 km
Derült ég
30-én 01 óra UTC és 30-én 02 óra UTC között fokozatosan kialakuló
Északnyugati szél 5 kt

TAF: MMZH 291652Z 2918/3018 23010KT P6SM SKC BECMG 3001/3002 31005KT

Meteorológiai megfigyelések és előrejelzések több, mint 4000 repülőtéren (METAR és TAF jelentéseket).

A térképen piros és sárga pontok jelzik az elérhető meteorológiai állomásokat.

Mozgassa az egeret a pont fölött, hogy megjelenjen az állomás neve.

Azután kattintson az időjárási megfigyelések és előrejelzések megtekintéséhez.

A térkép megváltoztatása: kattintson a fekete keresztel jelölt zöld gombra ráközelítéshez, a vonallal jelölt zöld gombra távolításhoz, vagy a zöld nyilakra a szomszédos térképek eléréséhez.


METAR-TAF: